createdAt,value
2023-03-17T00:01:56.192Z,99.90
2023-03-17T00:04:25.590Z,99.90
2023-03-17T00:06:53.408Z,99.90
2023-03-17T00:09:22.610Z,99.90
2023-03-17T00:11:50.012Z,99.90
2023-03-17T00:14:17.863Z,99.90
2023-03-17T00:16:50.149Z,99.90
2023-03-17T00:19:31.281Z,99.90
2023-03-17T00:22:00.342Z,99.90
2023-03-17T00:24:28.428Z,99.90
2023-03-17T00:26:55.552Z,99.90
2023-03-17T00:29:23.690Z,99.90
2023-03-17T00:31:51.204Z,99.90
2023-03-17T00:34:20.180Z,99.90
2023-03-17T00:36:50.331Z,99.90
2023-03-17T00:39:18.910Z,99.90
2023-03-17T00:44:13.071Z,99.90
2023-03-17T00:46:42.133Z,99.90
2023-03-17T00:49:19.233Z,99.90
2023-03-17T00:51:48.017Z,99.90
2023-03-17T00:54:18.034Z,99.90
2023-03-17T00:56:56.278Z,99.90
2023-03-17T00:59:39.808Z,99.90
2023-03-17T01:02:07.308Z,99.90
2023-03-17T01:04:34.786Z,99.90
2023-03-17T01:07:02.313Z,99.90
2023-03-17T01:09:30.891Z,99.90
2023-03-17T01:11:58.006Z,99.90
2023-03-17T01:14:25.121Z,99.90
2023-03-17T01:16:55.278Z,99.90
2023-03-17T01:19:22.503Z,99.90
2023-03-17T01:21:49.605Z,99.90
2023-03-17T01:24:16.553Z,99.90
2023-03-17T01:26:43.709Z,99.90
2023-03-17T01:29:11.229Z,99.90
2023-03-17T01:31:38.200Z,99.90
2023-03-17T01:34:06.326Z,99.90
2023-03-17T01:36:34.351Z,99.90
2023-03-17T01:39:01.493Z,99.90
2023-03-17T01:41:28.498Z,99.90
2023-03-17T01:43:55.411Z,99.90
2023-03-17T01:46:35.944Z,99.90
2023-03-17T01:49:25.372Z,99.90
2023-03-17T01:52:06.189Z,99.90
2023-03-17T01:54:50.560Z,99.90
2023-03-17T01:57:37.636Z,99.90
2023-03-17T02:00:18.912Z,99.90
2023-03-17T02:02:52.914Z,99.90
2023-03-17T02:05:28.350Z,99.90
2023-03-17T02:07:56.289Z,99.90
2023-03-17T02:10:27.619Z,99.90
2023-03-17T02:13:02.851Z,99.90
2023-03-17T02:15:40.724Z,99.90
2023-03-17T02:18:10.036Z,99.90
2023-03-17T02:20:37.147Z,99.90
2023-03-17T02:23:06.308Z,99.90
2023-03-17T02:25:36.121Z,99.90
2023-03-17T02:28:11.515Z,99.90
2023-03-17T02:30:38.880Z,99.90
2023-03-17T02:33:06.428Z,99.90
2023-03-17T02:35:38.376Z,99.90
2023-03-17T02:38:05.560Z,99.90
2023-03-17T02:40:33.551Z,99.90
2023-03-17T02:43:00.863Z,99.90
2023-03-17T02:45:27.948Z,99.90
2023-03-17T02:47:56.019Z,99.90
2023-03-17T02:50:27.944Z,99.90
2023-03-17T02:52:55.548Z,99.90
2023-03-17T02:55:27.171Z,99.90
2023-03-17T02:57:54.505Z,99.90
2023-03-17T03:00:22.110Z,99.90
2023-03-17T03:02:49.072Z,99.90
2023-03-17T03:05:17.119Z,99.90
2023-03-17T03:07:44.017Z,99.90
2023-03-17T03:10:11.546Z,99.90
2023-03-17T03:12:38.818Z,99.90
2023-03-17T03:15:07.134Z,99.90
2023-03-17T03:17:34.104Z,99.90
2023-03-17T03:20:01.156Z,99.90
2023-03-17T03:22:28.164Z,99.90
2023-03-17T03:24:55.218Z,99.90
2023-03-17T03:27:22.145Z,99.90
2023-03-17T03:29:49.080Z,99.90
2023-03-17T03:32:16.605Z,99.90
2023-03-17T03:34:43.701Z,99.90
2023-03-17T03:37:11.127Z,99.90
2023-03-17T03:39:39.214Z,99.90
2023-03-17T03:42:07.030Z,99.90
2023-03-17T03:44:34.383Z,99.90
2023-03-17T03:47:01.890Z,99.90
2023-03-17T03:49:29.000Z,99.90
2023-03-17T03:51:56.348Z,99.90
2023-03-17T03:54:23.576Z,99.90
2023-03-17T03:56:50.682Z,99.90
2023-03-17T03:59:17.878Z,99.90
2023-03-17T04:01:45.775Z,99.90
2023-03-17T04:04:12.810Z,99.90
2023-03-17T04:06:39.781Z,99.90
2023-03-17T04:09:06.668Z,99.90
2023-03-17T04:11:33.747Z,99.90
2023-03-17T04:14:01.136Z,99.90
2023-03-17T04:16:28.339Z,99.90
2023-03-17T04:18:55.618Z,99.90
2023-03-17T04:21:23.164Z,99.90
2023-03-17T04:23:50.109Z,99.90
2023-03-17T04:26:18.848Z,99.90
2023-03-17T04:28:46.214Z,99.90
2023-03-17T04:31:13.137Z,99.90
2023-03-17T04:33:41.114Z,99.90
2023-03-17T04:36:10.437Z,99.90
2023-03-17T04:38:37.730Z,99.90
2023-03-17T04:41:04.980Z,99.90
2023-03-17T04:43:32.097Z,99.90
2023-03-17T04:45:58.950Z,99.90
2023-03-17T04:48:28.915Z,99.90
2023-03-17T04:50:55.836Z,99.90
2023-03-17T04:53:23.365Z,99.90
2023-03-17T04:55:50.945Z,99.90
2023-03-17T04:58:29.995Z,99.90
2023-03-17T05:01:02.665Z,99.90
2023-03-17T05:03:31.067Z,99.90
2023-03-17T05:05:58.649Z,99.90
2023-03-17T05:08:28.213Z,99.90
2023-03-17T05:10:58.994Z,99.90
2023-03-17T05:13:27.338Z,99.90
2023-03-17T05:15:56.522Z,99.90
2023-03-17T05:18:25.756Z,99.90
2023-03-17T05:20:53.596Z,99.90
2023-03-17T05:23:22.430Z,99.90
2023-03-17T05:25:49.950Z,99.90
2023-03-17T05:28:17.226Z,99.90
2023-03-17T05:30:44.358Z,99.90
2023-03-17T05:33:12.023Z,99.90
2023-03-17T05:35:39.134Z,99.90
2023-03-17T05:38:07.649Z,99.90
2023-03-17T05:40:35.853Z,99.90
2023-03-17T05:43:05.106Z,99.90
2023-03-17T05:45:33.714Z,99.90
2023-03-17T05:48:00.780Z,99.90
2023-03-17T05:50:28.034Z,99.90
2023-03-17T05:52:55.290Z,99.90
2023-03-17T05:55:22.741Z,99.90
2023-03-17T05:57:49.799Z,99.90
2023-03-17T06:00:18.888Z,99.90
2023-03-17T06:02:46.086Z,99.90
2023-03-17T06:05:13.385Z,99.90
2023-03-17T06:07:53.050Z,99.90
2023-03-17T06:10:21.952Z,99.90
2023-03-17T06:12:49.260Z,99.90
2023-03-17T06:15:17.306Z,99.90
2023-03-17T06:17:44.693Z,99.90
2023-03-17T06:20:17.028Z,99.90
2023-03-17T06:22:55.427Z,99.90
2023-03-17T06:25:30.506Z,99.90
2023-03-17T06:27:57.812Z,99.90
2023-03-17T06:30:24.795Z,99.90
2023-03-17T06:32:51.788Z,99.90
2023-03-17T06:35:18.960Z,99.90
2023-03-17T06:37:46.114Z,99.90
2023-03-17T06:40:14.082Z,99.90
2023-03-17T06:42:41.273Z,99.90
2023-03-17T06:45:09.539Z,99.90
2023-03-17T06:47:37.362Z,99.90
2023-03-17T06:50:10.045Z,99.90
2023-03-17T06:52:38.156Z,99.90
2023-03-17T06:55:06.340Z,99.90
2023-03-17T06:57:34.025Z,99.90
2023-03-17T07:00:01.161Z,99.90
2023-03-17T07:02:29.034Z,99.90
2023-03-17T07:04:58.326Z,99.90
2023-03-17T07:07:25.386Z,99.90
2023-03-17T07:09:52.908Z,99.90
2023-03-17T07:12:21.075Z,99.90
2023-03-17T07:14:48.060Z,99.90
2023-03-17T07:17:15.326Z,99.90
2023-03-17T07:19:43.672Z,99.90
2023-03-17T07:22:13.450Z,99.90
2023-03-17T07:24:42.006Z,99.90
2023-03-17T07:27:09.836Z,99.90
2023-03-17T07:29:36.873Z,99.90
2023-03-17T07:32:06.568Z,99.90
2023-03-17T07:34:33.963Z,99.90
2023-03-17T07:37:01.310Z,99.90
2023-03-17T07:39:28.403Z,99.90
2023-03-17T07:41:56.581Z,99.90
2023-03-17T07:44:24.694Z,99.90
2023-03-17T07:46:52.983Z,99.90
2023-03-17T07:49:40.091Z,99.90
2023-03-17T07:52:10.018Z,99.90
2023-03-17T07:54:37.626Z,99.90
2023-03-17T07:57:07.896Z,99.90
2023-03-17T07:59:36.196Z,99.90
2023-03-17T08:02:03.837Z,99.90
2023-03-17T08:04:31.069Z,99.90
2023-03-17T08:06:58.088Z,99.90
2023-03-17T08:09:25.624Z,99.90
2023-03-17T08:11:52.686Z,99.90
2023-03-17T08:14:20.053Z,99.90
2023-03-17T08:16:47.616Z,99.90
2023-03-17T08:19:14.679Z,99.90
2023-03-17T08:21:42.154Z,99.90
2023-03-17T08:24:09.938Z,99.60
2023-03-17T08:26:37.747Z,99.00
2023-03-17T08:29:05.378Z,98.70
2023-03-17T08:31:33.914Z,97.50
2023-03-17T08:34:05.143Z,98.10
2023-03-17T08:36:32.117Z,96.90
2023-03-17T08:38:59.511Z,97.10
2023-03-17T08:41:28.359Z,97.10
2023-03-17T08:43:56.248Z,96.90
2023-03-17T08:48:59.295Z,95.80
2023-03-17T08:51:32.360Z,95.80
2023-03-17T08:53:59.778Z,96.50
2023-03-17T08:56:27.773Z,95.50
2023-03-17T08:58:55.208Z,96.70
2023-03-17T09:01:24.442Z,96.00
2023-03-17T09:03:55.192Z,95.20
2023-03-17T09:06:23.151Z,96.20
2023-03-17T09:08:55.561Z,95.90
2023-03-17T09:11:30.156Z,95.80
2023-03-17T09:13:57.065Z,96.30
2023-03-17T09:16:25.830Z,96.70
2023-03-17T09:18:53.385Z,96.50
2023-03-17T09:21:21.528Z,97.30
2023-03-17T09:23:48.900Z,97.50
2023-03-17T09:26:16.173Z,96.60
2023-03-17T09:28:43.583Z,96.70
2023-03-17T09:31:12.438Z,96.50
2023-03-17T09:33:40.955Z,96.60
2023-03-17T09:36:10.398Z,96.30
2023-03-17T09:38:38.028Z,96.30
2023-03-17T09:41:19.982Z,96.50
2023-03-17T09:44:35.041Z,96.50
2023-03-17T09:47:43.530Z,97.20
2023-03-17T09:50:23.187Z,96.70
2023-03-17T09:52:52.416Z,96.20
2023-03-17T09:55:30.673Z,97.20
2023-03-17T09:58:01.524Z,96.40
2023-03-17T10:00:31.202Z,96.00
2023-03-17T10:02:59.085Z,95.70
2023-03-17T10:05:32.588Z,95.20
2023-03-17T10:08:32.318Z,94.70
2023-03-17T10:11:35.657Z,94.70
2023-03-17T10:14:19.762Z,94.20
2023-03-17T10:16:53.917Z,94.30
2023-03-17T10:22:01.812Z,98.30
2023-03-17T10:24:32.710Z,99.90
2023-03-17T10:27:05.243Z,96.20
2023-03-17T10:29:32.925Z,94.80
2023-03-17T10:32:00.619Z,94.80
2023-03-17T10:34:37.692Z,94.80
2023-03-17T10:37:09.693Z,95.80
2023-03-17T10:39:51.390Z,94.40
2023-03-17T10:42:29.107Z,94.50
2023-03-17T10:45:15.697Z,93.90
2023-03-17T10:47:50.247Z,94.20
2023-03-17T10:50:37.402Z,94.50
2023-03-17T10:53:04.624Z,94.20
2023-03-17T10:55:44.779Z,94.30
2023-03-17T10:58:24.427Z,93.80
2023-03-17T11:01:07.994Z,94.00
2023-03-17T11:03:40.462Z,94.90
2023-03-17T11:06:16.110Z,93.80
2023-03-17T11:08:54.053Z,93.80
2023-03-17T11:11:30.172Z,94.30
2023-03-17T11:14:07.092Z,93.70
2023-03-17T11:16:40.507Z,94.20
2023-03-17T11:19:17.066Z,94.00
2023-03-17T11:22:30.505Z,93.30
2023-03-17T11:25:16.638Z,94.10
2023-03-17T11:27:59.633Z,93.80
2023-03-17T11:30:42.555Z,93.80
2023-03-17T11:33:35.665Z,93.40
2023-03-17T11:36:21.134Z,93.50
2023-03-17T11:38:58.718Z,93.00
2023-03-17T11:41:25.576Z,92.70
2023-03-17T11:44:17.274Z,92.40
2023-03-17T11:46:50.394Z,92.90
2023-03-17T11:49:37.149Z,92.90
2023-03-17T11:52:28.728Z,92.90
2023-03-17T11:55:37.777Z,93.40
2023-03-17T11:58:13.933Z,94.00
2023-03-17T12:00:53.701Z,93.80
2023-03-17T12:03:42.643Z,93.10
2023-03-17T12:06:20.845Z,92.70
2023-03-17T12:09:32.489Z,94.50
2023-03-17T12:12:01.582Z,93.40
2023-03-17T12:14:56.977Z,92.70
2023-03-17T12:17:57.345Z,93.20
2023-03-17T12:20:32.522Z,92.70
2023-03-17T12:23:33.068Z,94.60
2023-03-17T12:26:19.597Z,93.40
2023-03-17T12:29:14.196Z,93.90
2023-03-17T12:32:05.698Z,93.50
2023-03-17T12:34:57.406Z,94.50
2023-03-17T12:37:27.815Z,92.70
2023-03-17T12:40:09.887Z,93.90
2023-03-17T12:43:14.031Z,92.80
2023-03-17T12:45:45.401Z,92.50
2023-03-17T12:48:44.189Z,94.00
2023-03-17T12:51:32.246Z,92.70
2023-03-17T12:54:00.492Z,92.20
2023-03-17T12:56:33.260Z,92.80
2023-03-17T12:59:24.412Z,93.10
2023-03-17T13:02:16.512Z,93.10
2023-03-17T13:05:01.164Z,91.70
2023-03-17T13:07:48.294Z,91.20
2023-03-17T13:10:42.954Z,90.20
2023-03-17T13:13:35.802Z,90.50
2023-03-17T13:16:27.752Z,90.20
2023-03-17T13:19:31.379Z,90.50
2023-03-17T13:22:04.175Z,90.80
2023-03-17T13:24:49.453Z,90.60
2023-03-17T13:27:32.332Z,90.70
2023-03-17T13:30:22.242Z,90.30
2023-03-17T13:33:12.256Z,90.90
2023-03-17T13:36:05.751Z,91.00
2023-03-17T13:38:43.689Z,91.10
2023-03-17T13:41:19.200Z,90.80
2023-03-17T13:43:52.434Z,91.50
2023-03-17T13:46:31.839Z,90.40
2023-03-17T13:49:16.723Z,90.40
2023-03-17T13:51:59.987Z,90.00
2023-03-17T13:54:30.140Z,91.40
2023-03-17T13:57:19.755Z,91.30
2023-03-17T14:00:09.144Z,91.10
2023-03-17T14:02:39.909Z,90.50
2023-03-17T14:05:25.690Z,89.30
2023-03-17T14:08:14.095Z,90.00
2023-03-17T14:10:41.606Z,90.00
2023-03-17T14:13:23.130Z,89.00
2023-03-17T14:16:04.111Z,90.30
2023-03-17T14:18:43.186Z,89.30
2023-03-17T14:21:39.077Z,90.20
2023-03-17T14:24:32.984Z,89.70
2023-03-17T14:27:09.478Z,89.30
2023-03-17T14:29:37.721Z,87.40
2023-03-17T14:32:18.173Z,88.50
2023-03-17T14:34:49.344Z,88.80
2023-03-17T14:37:18.426Z,88.90
2023-03-17T14:39:53.700Z,89.40
2023-03-17T14:42:28.494Z,90.50
2023-03-17T14:45:04.724Z,90.30
2023-03-17T14:47:39.519Z,89.80
2023-03-17T14:50:23.434Z,90.00
2023-03-17T14:52:50.668Z,90.50
2023-03-17T14:55:20.875Z,90.60
2023-03-17T14:57:53.191Z,90.80
2023-03-17T15:00:36.427Z,91.20
2023-03-17T15:03:17.787Z,90.90
2023-03-17T15:05:46.884Z,90.90
2023-03-17T15:08:41.069Z,90.90
2023-03-17T15:11:15.150Z,91.60
2023-03-17T15:13:42.390Z,91.50
2023-03-17T15:16:22.289Z,92.70
2023-03-17T15:19:01.652Z,91.30
2023-03-17T15:21:49.894Z,91.50
2023-03-17T15:24:28.593Z,91.00
2023-03-17T15:27:04.335Z,92.00
2023-03-17T15:29:31.733Z,92.50
2023-03-17T15:32:12.004Z,91.70
2023-03-17T15:34:39.063Z,91.80
2023-03-17T15:37:19.004Z,92.10
2023-03-17T15:39:47.666Z,92.00
2023-03-17T15:42:18.659Z,91.80
2023-03-17T15:44:45.882Z,93.10
2023-03-17T15:47:15.908Z,92.50
2023-03-17T15:49:45.111Z,92.60
2023-03-17T15:52:24.846Z,93.00
2023-03-17T15:57:21.649Z,92.70
2023-03-17T15:59:48.794Z,93.30
2023-03-17T16:02:37.436Z,93.20
2023-03-17T16:05:32.018Z,93.40
2023-03-17T16:07:58.971Z,93.70
2023-03-17T16:10:29.660Z,93.90
2023-03-17T16:12:57.828Z,94.10
2023-03-17T16:15:28.476Z,93.90
2023-03-17T16:18:05.657Z,94.40
2023-03-17T16:20:41.980Z,93.90
2023-03-17T16:23:28.692Z,93.90
2023-03-17T16:26:08.171Z,94.30
2023-03-17T16:28:42.598Z,94.00
2023-03-17T16:31:23.450Z,93.90
2023-03-17T16:33:53.400Z,94.40
2023-03-17T16:36:22.978Z,94.70
2023-03-17T16:38:51.157Z,94.90
2023-03-17T16:41:27.642Z,94.50
2023-03-17T16:44:01.461Z,94.30
2023-03-17T16:46:34.903Z,97.10
2023-03-17T16:49:04.298Z,94.50
2023-03-17T16:51:31.497Z,94.10
2023-03-17T16:53:58.664Z,94.50
2023-03-17T16:56:27.457Z,94.50
2023-03-17T16:58:54.762Z,94.90
2023-03-17T17:01:26.299Z,94.80
2023-03-17T17:03:53.983Z,94.70
2023-03-17T17:06:23.920Z,94.80
2023-03-17T17:08:52.393Z,94.80
2023-03-17T17:11:21.077Z,94.80
2023-03-17T17:13:49.597Z,95.10
2023-03-17T17:16:29.380Z,95.30
2023-03-17T17:18:57.523Z,95.30
2023-03-17T17:23:53.773Z,95.00
2023-03-17T17:26:21.675Z,95.30
2023-03-17T17:28:49.070Z,95.80
2023-03-17T17:31:16.233Z,95.90
2023-03-17T17:33:43.556Z,95.90
2023-03-17T17:36:17.371Z,96.10
2023-03-17T17:38:45.033Z,96.60
2023-03-17T17:41:13.424Z,96.60
2023-03-17T17:43:41.111Z,96.90
2023-03-17T17:46:21.564Z,97.00
2023-03-17T17:48:49.576Z,97.30
2023-03-17T17:51:17.751Z,97.10
2023-03-17T17:53:45.340Z,97.30
2023-03-17T17:56:18.785Z,97.30
2023-03-17T17:58:46.758Z,97.80
2023-03-17T18:01:19.583Z,98.00
2023-03-17T18:03:46.968Z,97.90
2023-03-17T18:06:14.664Z,97.90
2023-03-17T18:08:43.584Z,97.80
2023-03-17T18:11:10.922Z,97.70
2023-03-17T18:13:39.294Z,97.70
2023-03-17T18:16:10.283Z,97.50
2023-03-17T18:18:40.639Z,97.80
2023-03-17T18:21:08.255Z,97.90
2023-03-17T18:23:36.552Z,97.90
2023-03-17T18:26:06.168Z,98.00
2023-03-17T18:28:33.616Z,98.00
2023-03-17T18:31:10.685Z,98.00
2023-03-17T18:33:39.505Z,98.10
2023-03-17T18:36:08.659Z,98.20
2023-03-17T18:38:38.078Z,98.00
2023-03-17T18:41:07.105Z,98.10
2023-03-17T18:43:34.196Z,97.70
2023-03-17T18:46:01.219Z,98.10
2023-03-17T18:48:28.218Z,97.80
2023-03-17T18:50:55.503Z,98.10
2023-03-17T18:53:23.176Z,97.80
2023-03-17T18:55:50.349Z,97.70
2023-03-17T18:58:17.670Z,97.90
2023-03-17T19:00:44.770Z,97.80
2023-03-17T19:03:12.102Z,97.60
2023-03-17T19:05:39.614Z,97.60
2023-03-17T19:08:07.551Z,97.50
2023-03-17T19:10:34.590Z,97.70
2023-03-17T19:13:02.305Z,97.80
2023-03-17T19:15:29.263Z,97.70
2023-03-17T19:17:56.267Z,97.60
2023-03-17T19:20:23.329Z,97.70
2023-03-17T19:22:53.239Z,97.90
2023-03-17T19:25:21.213Z,97.60
2023-03-17T19:27:48.348Z,97.90
2023-03-17T19:30:16.519Z,97.60
2023-03-17T19:32:43.707Z,97.80
2023-03-17T19:35:11.969Z,97.90
2023-03-17T19:37:39.379Z,97.90
2023-03-17T19:40:09.780Z,98.00
2023-03-17T19:42:37.102Z,97.90
2023-03-17T19:45:05.035Z,97.90
2023-03-17T19:47:32.119Z,98.10
2023-03-17T19:49:59.311Z,98.10
2023-03-17T19:52:26.397Z,97.80
2023-03-17T19:54:53.224Z,97.90
2023-03-17T19:57:21.043Z,98.10
2023-03-17T19:59:48.031Z,98.20
2023-03-17T20:02:16.860Z,98.10
2023-03-17T20:04:44.754Z,97.90
2023-03-17T20:07:11.892Z,98.00
2023-03-17T20:09:39.753Z,98.00
2023-03-17T20:12:07.214Z,98.10
2023-03-17T20:14:34.648Z,98.20
2023-03-17T20:17:01.676Z,98.00
2023-03-17T20:19:29.274Z,98.10
2023-03-17T20:21:58.520Z,98.10
2023-03-17T20:24:27.121Z,98.20
2023-03-17T20:26:56.791Z,98.30
2023-03-17T20:29:24.612Z,98.30
2023-03-17T20:31:51.927Z,98.20
2023-03-17T20:34:19.143Z,98.30
2023-03-17T20:36:46.892Z,98.40
2023-03-17T20:39:19.932Z,98.30
2023-03-17T20:41:49.630Z,98.70
2023-03-17T20:44:17.967Z,98.60
2023-03-17T20:46:46.068Z,98.50
2023-03-17T20:49:13.914Z,98.60
2023-03-17T20:51:41.246Z,98.50
2023-03-17T20:54:09.336Z,98.60
2023-03-17T20:56:37.457Z,98.60
2023-03-17T20:59:06.328Z,98.50
2023-03-17T21:01:36.285Z,98.90
2023-03-17T21:04:09.224Z,98.50
2023-03-17T21:06:38.481Z,98.50
2023-03-17T21:09:05.994Z,98.60
2023-03-17T21:11:33.388Z,98.50
2023-03-17T21:14:01.790Z,98.80
2023-03-17T21:16:30.090Z,98.70
2023-03-17T21:18:57.311Z,98.80
2023-03-17T21:21:25.131Z,98.60
2023-03-17T21:23:52.139Z,98.80
2023-03-17T21:26:19.618Z,98.60
2023-03-17T21:28:48.046Z,98.70
2023-03-17T21:31:17.000Z,99.30
2023-03-17T21:33:44.059Z,98.80
2023-03-17T21:36:11.575Z,98.80
2023-03-17T21:38:39.274Z,98.80
2023-03-17T21:41:33.528Z,98.90
2023-03-17T21:44:04.911Z,98.90
2023-03-17T21:46:33.640Z,98.80
2023-03-17T21:49:01.863Z,98.90
2023-03-17T21:51:29.788Z,98.70
2023-03-17T21:53:58.032Z,99.10
2023-03-17T21:56:25.521Z,99.00
2023-03-17T21:58:52.518Z,98.90
2023-03-17T22:01:21.804Z,98.90
2023-03-17T22:03:50.478Z,99.10
2023-03-17T22:06:18.225Z,99.10
2023-03-17T22:08:46.273Z,99.20
2023-03-17T22:11:16.838Z,99.40
2023-03-17T22:13:44.887Z,99.30
2023-03-17T22:16:13.048Z,99.30
2023-03-17T22:18:40.651Z,99.60
2023-03-17T22:21:08.533Z,99.50
2023-03-17T22:23:41.305Z,99.80
2023-03-17T22:26:09.457Z,99.70
2023-03-17T22:28:37.810Z,99.90
2023-03-17T22:31:17.002Z,99.90
2023-03-17T22:33:44.273Z,99.90
2023-03-17T22:36:11.638Z,99.90
2023-03-17T22:38:38.925Z,99.90
2023-03-17T22:41:14.070Z,99.90
2023-03-17T22:43:42.327Z,99.90
2023-03-17T22:46:10.185Z,99.90
2023-03-17T22:48:37.549Z,99.90
2023-03-17T22:51:09.202Z,99.90
2023-03-17T22:53:37.733Z,99.90
2023-03-17T22:56:06.439Z,99.90
2023-03-17T22:58:34.067Z,99.90
2023-03-17T23:01:01.636Z,99.90
2023-03-17T23:03:29.730Z,99.90
2023-03-17T23:06:00.484Z,99.90
2023-03-17T23:08:29.873Z,99.90
2023-03-17T23:10:59.880Z,99.90
2023-03-17T23:13:27.669Z,99.90
2023-03-17T23:15:54.803Z,99.90
2023-03-17T23:18:21.818Z,99.90
2023-03-17T23:20:49.156Z,99.90
2023-03-17T23:23:17.703Z,99.90
2023-03-17T23:25:44.973Z,99.90
2023-03-17T23:28:13.074Z,99.90
2023-03-17T23:30:40.867Z,99.90
2023-03-17T23:33:08.358Z,99.90
2023-03-17T23:35:35.870Z,99.90
2023-03-17T23:38:04.487Z,99.90
2023-03-17T23:40:32.509Z,99.90
2023-03-17T23:43:00.254Z,99.90
2023-03-17T23:45:28.476Z,99.90
2023-03-17T23:47:57.603Z,99.90
2023-03-17T23:50:24.883Z,99.90
2023-03-17T23:52:52.154Z,99.90
2023-03-17T23:55:19.552Z,99.90
2023-03-17T23:57:49.132Z,99.90
